sensor_id;sensor_type;location;lat;lon;timestamp;P1;durP1;ratioP1;P2;durP2;ratioP2
31782;SDS011;18351;47.560;9.708;2023-02-28T00:02:19;27.02;;;14.70;;
31782;SDS011;18351;47.560;9.708;2023-02-28T00:04:45;35.70;;;19.02;;
31782;SDS011;18351;47.560;9.708;2023-02-28T00:07:17;19.37;;;13.70;;
31782;SDS011;18351;47.560;9.708;2023-02-28T00:09:44;20.77;;;13.57;;
31782;SDS011;18351;47.560;9.708;2023-02-28T00:12:09;23.00;;;13.30;;
31782;SDS011;18351;47.560;9.708;2023-02-28T00:14:37;19.35;;;13.30;;
31782;SDS011;18351;47.560;9.708;2023-02-28T00:17:03;23.33;;;14.73;;
31782;SDS011;18351;47.560;9.708;2023-02-28T00:19:28;20.15;;;14.30;;
31782;SDS011;18351;47.560;9.708;2023-02-28T00:21:54;25.58;;;14.52;;
31782;SDS011;18351;47.560;9.708;2023-02-28T00:24:19;20.67;;;13.50;;
31782;SDS011;18351;47.560;9.708;2023-02-28T00:26:45;20.35;;;14.18;;
31782;SDS011;18351;47.560;9.708;2023-02-28T00:29:11;19.25;;;14.00;;
31782;SDS011;18351;47.560;9.708;2023-02-28T00:31:36;19.33;;;14.15;;
31782;SDS011;18351;47.560;9.708;2023-02-28T00:34:02;24.65;;;14.40;;
31782;SDS011;18351;47.560;9.708;2023-02-28T00:36:27;20.50;;;14.30;;
31782;SDS011;18351;47.560;9.708;2023-02-28T00:38:53;19.10;;;13.60;;
31782;SDS011;18351;47.560;9.708;2023-02-28T00:41:19;20.55;;;13.93;;
31782;SDS011;18351;47.560;9.708;2023-02-28T00:43:44;20.33;;;13.75;;
31782;SDS011;18351;47.560;9.708;2023-02-28T00:46:10;22.23;;;14.65;;
31782;SDS011;18351;47.560;9.708;2023-02-28T00:48:35;20.95;;;14.10;;
31782;SDS011;18351;47.560;9.708;2023-02-28T00:51:01;20.83;;;14.45;;
31782;SDS011;18351;47.560;9.708;2023-02-28T00:53:27;20.42;;;14.30;;
31782;SDS011;18351;47.560;9.708;2023-02-28T00:55:53;24.55;;;14.73;;
31782;SDS011;18351;47.560;9.708;2023-02-28T00:58:19;21.15;;;13.85;;
31782;SDS011;18351;47.560;9.708;2023-02-28T01:00:45;19.65;;;13.38;;
31782;SDS011;18351;47.560;9.708;2023-02-28T01:03:14;18.42;;;13.88;;
31782;SDS011;18351;47.560;9.708;2023-02-28T01:05:41;19.98;;;13.98;;
31782;SDS011;18351;47.560;9.708;2023-02-28T01:08:07;23.05;;;14.52;;
31782;SDS011;18351;47.560;9.708;2023-02-28T01:10:32;20.88;;;13.70;;
31782;SDS011;18351;47.560;9.708;2023-02-28T01:12:58;22.00;;;14.55;;
31782;SDS011;18351;47.560;9.708;2023-02-28T01:15:24;23.73;;;13.65;;
31782;SDS011;18351;47.560;9.708;2023-02-28T01:17:49;19.30;;;13.23;;
31782;SDS011;18351;47.560;9.708;2023-02-28T01:20:15;19.92;;;14.23;;
31782;SDS011;18351;47.560;9.708;2023-02-28T01:22:40;25.05;;;14.40;;
31782;SDS011;18351;47.560;9.708;2023-02-28T01:25:06;24.13;;;14.63;;
31782;SDS011;18351;47.560;9.708;2023-02-28T01:27:33;28.10;;;15.57;;
31782;SDS011;18351;47.560;9.708;2023-02-28T01:29:58;20.83;;;14.23;;
31782;SDS011;18351;47.560;9.708;2023-02-28T01:32:24;21.25;;;14.70;;
31782;SDS011;18351;47.560;9.708;2023-02-28T01:34:50;21.90;;;15.20;;
31782;SDS011;18351;47.560;9.708;2023-02-28T01:37:15;21.52;;;14.65;;
31782;SDS011;18351;47.560;9.708;2023-02-28T01:39:41;27.38;;;15.82;;
31782;SDS011;18351;47.560;9.708;2023-02-28T01:42:08;27.63;;;15.07;;
31782;SDS011;18351;47.560;9.708;2023-02-28T01:47:32;23.52;;;14.43;;
31782;SDS011;18351;47.560;9.708;2023-02-28T01:50:06;45.92;;;21.80;;
31782;SDS011;18351;47.560;9.708;2023-02-28T01:52:39;27.95;;;16.63;;
31782;SDS011;18351;47.560;9.708;2023-02-28T01:55:06;25.77;;;15.25;;
31782;SDS011;18351;47.560;9.708;2023-02-28T01:57:34;24.13;;;14.82;;
31782;SDS011;18351;47.560;9.708;2023-02-28T02:00:10;20.67;;;13.77;;
31782;SDS011;18351;47.560;9.708;2023-02-28T02:02:39;21.92;;;14.43;;
31782;SDS011;18351;47.560;9.708;2023-02-28T02:05:12;21.17;;;14.48;;
31782;SDS011;18351;47.560;9.708;2023-02-28T02:07:42;22.42;;;15.32;;
31782;SDS011;18351;47.560;9.708;2023-02-28T02:10:15;19.33;;;13.95;;
31782;SDS011;18351;47.560;9.708;2023-02-28T02:15:38;25.13;;;16.13;;
31782;SDS011;18351;47.560;9.708;2023-02-28T02:21:25;25.23;;;14.82;;
31782;SDS011;18351;47.560;9.708;2023-02-28T02:40:37;22.67;;;13.38;;
31782;SDS011;18351;47.560;9.708;2023-02-28T02:43:32;19.80;;;13.98;;
31782;SDS011;18351;47.560;9.708;2023-02-28T02:46:23;19.15;;;13.20;;
31782;SDS011;18351;47.560;9.708;2023-02-28T02:49:00;22.02;;;13.38;;
31782;SDS011;18351;47.560;9.708;2023-02-28T02:51:30;19.98;;;13.80;;
31782;SDS011;18351;47.560;9.708;2023-02-28T02:53:58;20.35;;;13.65;;
31782;SDS011;18351;47.560;9.708;2023-02-28T02:56:33;22.63;;;14.20;;
31782;SDS011;18351;47.560;9.708;2023-02-28T02:59:04;22.33;;;14.98;;
31782;SDS011;18351;47.560;9.708;2023-02-28T03:04:01;22.05;;;15.13;;
31782;SDS011;18351;47.560;9.708;2023-02-28T03:06:29;22.95;;;14.13;;
31782;SDS011;18351;47.560;9.708;2023-02-28T03:08:55;20.52;;;14.02;;
31782;SDS011;18351;47.560;9.708;2023-02-28T03:11:20;24.52;;;14.88;;
31782;SDS011;18351;47.560;9.708;2023-02-28T03:16:53;22.08;;;15.05;;
31782;SDS011;18351;47.560;9.708;2023-02-28T03:19:31;26.27;;;15.07;;
31782;SDS011;18351;47.560;9.708;2023-02-28T03:22:19;21.70;;;14.43;;
31782;SDS011;18351;47.560;9.708;2023-02-28T03:25:05;22.20;;;15.52;;
31782;SDS011;18351;47.560;9.708;2023-02-28T03:30:35;22.30;;;15.02;;
31782;SDS011;18351;47.560;9.708;2023-02-28T03:33:11;22.58;;;15.25;;
31782;SDS011;18351;47.560;9.708;2023-02-28T03:35:43;23.00;;;15.07;;
31782;SDS011;18351;47.560;9.708;2023-02-28T03:40:48;24.17;;;15.90;;
31782;SDS011;18351;47.560;9.708;2023-02-28T03:43:21;23.10;;;15.18;;
31782;SDS011;18351;47.560;9.708;2023-02-28T03:48:21;21.25;;;14.40;;
31782;SDS011;18351;47.560;9.708;2023-02-28T03:50:52;21.13;;;15.20;;
31782;SDS011;18351;47.560;9.708;2023-02-28T03:53:25;23.90;;;15.30;;
31782;SDS011;18351;47.560;9.708;2023-02-28T03:58:31;22.30;;;15.45;;
31782;SDS011;18351;47.560;9.708;2023-02-28T04:01:18;26.67;;;15.15;;
31782;SDS011;18351;47.560;9.708;2023-02-28T04:03:53;26.65;;;16.52;;
31782;SDS011;18351;47.560;9.708;2023-02-28T04:06:20;24.35;;;15.73;;
31782;SDS011;18351;47.560;9.708;2023-02-28T04:08:47;25.13;;;16.45;;
31782;SDS011;18351;47.560;9.708;2023-02-28T04:11:16;26.63;;;16.02;;
31782;SDS011;18351;47.560;9.708;2023-02-28T04:13:46;20.45;;;14.80;;
31782;SDS011;18351;47.560;9.708;2023-02-28T04:16:12;23.50;;;15.98;;
31782;SDS011;18351;47.560;9.708;2023-02-28T04:18:38;22.35;;;14.50;;
31782;SDS011;18351;47.560;9.708;2023-02-28T04:21:05;21.05;;;15.88;;
31782;SDS011;18351;47.560;9.708;2023-02-28T04:23:31;23.77;;;15.10;;
31782;SDS011;18351;47.560;9.708;2023-02-28T04:25:57;23.90;;;14.30;;
31782;SDS011;18351;47.560;9.708;2023-02-28T04:28:22;22.58;;;15.05;;
31782;SDS011;18351;47.560;9.708;2023-02-28T04:30:53;27.45;;;16.80;;
31782;SDS011;18351;47.560;9.708;2023-02-28T04:33:23;22.98;;;14.82;;
31782;SDS011;18351;47.560;9.708;2023-02-28T04:35:57;27.95;;;16.95;;
31782;SDS011;18351;47.560;9.708;2023-02-28T04:38:27;24.17;;;15.15;;
31782;SDS011;18351;47.560;9.708;2023-02-28T04:40:56;22.10;;;15.57;;
31782;SDS011;18351;47.560;9.708;2023-02-28T04:43:22;23.70;;;15.35;;
31782;SDS011;18351;47.560;9.708;2023-02-28T04:45:48;24.08;;;15.77;;
31782;SDS011;18351;47.560;9.708;2023-02-28T04:48:13;26.88;;;16.55;;
31782;SDS011;18351;47.560;9.708;2023-02-28T04:50:39;23.92;;;15.73;;
31782;SDS011;18351;47.560;9.708;2023-02-28T04:53:04;28.55;;;14.85;;
31782;SDS011;18351;47.560;9.708;2023-02-28T04:55:30;24.70;;;15.65;;
31782;SDS011;18351;47.560;9.708;2023-02-28T04:57:55;23.90;;;16.35;;
31782;SDS011;18351;47.560;9.708;2023-02-28T05:00:22;24.48;;;16.13;;
31782;SDS011;18351;47.560;9.708;2023-02-28T05:02:48;19.88;;;15.32;;
31782;SDS011;18351;47.560;9.708;2023-02-28T05:05:13;23.10;;;15.80;;
31782;SDS011;18351;47.560;9.708;2023-02-28T05:07:43;24.35;;;15.45;;
31782;SDS011;18351;47.560;9.708;2023-02-28T05:10:09;26.25;;;15.75;;
31782;SDS011;18351;47.560;9.708;2023-02-28T05:12:36;25.75;;;15.73;;
31782;SDS011;18351;47.560;9.708;2023-02-28T05:15:01;22.85;;;15.80;;
31782;SDS011;18351;47.560;9.708;2023-02-28T05:17:28;23.35;;;16.17;;
31782;SDS011;18351;47.560;9.708;2023-02-28T05:19:53;26.65;;;15.90;;
31782;SDS011;18351;47.560;9.708;2023-02-28T05:22:19;25.48;;;16.85;;
31782;SDS011;18351;47.560;9.708;2023-02-28T05:24:44;28.20;;;16.98;;
31782;SDS011;18351;47.560;9.708;2023-02-28T05:27:10;26.40;;;16.50;;
31782;SDS011;18351;47.560;9.708;2023-02-28T05:29:36;27.75;;;17.77;;
31782;SDS011;18351;47.560;9.708;2023-02-28T05:32:07;25.80;;;17.40;;
31782;SDS011;18351;47.560;9.708;2023-02-28T05:34:37;24.42;;;16.92;;
31782;SDS011;18351;47.560;9.708;2023-02-28T05:37:04;23.33;;;15.93;;
31782;SDS011;18351;47.560;9.708;2023-02-28T05:39:30;26.63;;;17.15;;
31782;SDS011;18351;47.560;9.708;2023-02-28T05:41:55;25.95;;;16.35;;
31782;SDS011;18351;47.560;9.708;2023-02-28T05:44:21;26.20;;;15.85;;
31782;SDS011;18351;47.560;9.708;2023-02-28T05:46:46;24.80;;;16.38;;
31782;SDS011;18351;47.560;9.708;2023-02-28T05:49:12;24.90;;;17.38;;
31782;SDS011;18351;47.560;9.708;2023-02-28T05:51:38;28.70;;;17.35;;
31782;SDS011;18351;47.560;9.708;2023-02-28T05:54:05;29.80;;;19.77;;
31782;SDS011;18351;47.560;9.708;2023-02-28T05:56:31;25.45;;;17.83;;
31782;SDS011;18351;47.560;9.708;2023-02-28T05:58:59;26.70;;;19.08;;
31782;SDS011;18351;47.560;9.708;2023-02-28T06:01:32;32.45;;;20.00;;
31782;SDS011;18351;47.560;9.708;2023-02-28T06:04:03;35.53;;;18.70;;
31782;SDS011;18351;47.560;9.708;2023-02-28T06:06:30;26.73;;;18.33;;
31782;SDS011;18351;47.560;9.708;2023-02-28T06:08:56;29.13;;;17.52;;
31782;SDS011;18351;47.560;9.708;2023-02-28T06:11:22;28.73;;;17.08;;
31782;SDS011;18351;47.560;9.708;2023-02-28T06:13:53;30.23;;;17.92;;
31782;SDS011;18351;47.560;9.708;2023-02-28T06:16:20;23.75;;;16.55;;
31782;SDS011;18351;47.560;9.708;2023-02-28T06:18:46;31.17;;;18.25;;
31782;SDS011;18351;47.560;9.708;2023-02-28T06:21:12;26.02;;;17.23;;
31782;SDS011;18351;47.560;9.708;2023-02-28T06:23:38;28.08;;;17.63;;
31782;SDS011;18351;47.560;9.708;2023-02-28T06:26:04;32.78;;;17.60;;
31782;SDS011;18351;47.560;9.708;2023-02-28T06:28:30;26.38;;;16.70;;
31782;SDS011;18351;47.560;9.708;2023-02-28T06:30:56;30.40;;;17.40;;
31782;SDS011;18351;47.560;9.708;2023-02-28T06:33:21;24.35;;;17.23;;
31782;SDS011;18351;47.560;9.708;2023-02-28T06:35:49;27.25;;;17.40;;
31782;SDS011;18351;47.560;9.708;2023-02-28T06:38:15;29.55;;;18.08;;
31782;SDS011;18351;47.560;9.708;2023-02-28T06:40:41;27.33;;;17.23;;
31782;SDS011;18351;47.560;9.708;2023-02-28T06:43:06;36.88;;;22.23;;
31782;SDS011;18351;47.560;9.708;2023-02-28T06:45:32;31.23;;;20.05;;
31782;SDS011;18351;47.560;9.708;2023-02-28T06:47:58;29.83;;;20.23;;
31782;SDS011;18351;47.560;9.708;2023-02-28T06:50:25;32.90;;;23.13;;
31782;SDS011;18351;47.560;9.708;2023-02-28T06:52:52;28.00;;;19.70;;
31782;SDS011;18351;47.560;9.708;2023-02-28T06:55:20;27.35;;;17.65;;
31782;SDS011;18351;47.560;9.708;2023-02-28T06:57:46;33.95;;;17.73;;
31782;SDS011;18351;47.560;9.708;2023-02-28T07:00:11;28.17;;;17.25;;
31782;SDS011;18351;47.560;9.708;2023-02-28T07:02:37;24.35;;;16.48;;
31782;SDS011;18351;47.560;9.708;2023-02-28T07:05:04;25.45;;;16.80;;
31782;SDS011;18351;47.560;9.708;2023-02-28T07:07:30;25.30;;;16.73;;
31782;SDS011;18351;47.560;9.708;2023-02-28T07:09:57;25.90;;;16.85;;
31782;SDS011;18351;47.560;9.708;2023-02-28T07:12:22;26.63;;;16.70;;
31782;SDS011;18351;47.560;9.708;2023-02-28T07:14:48;23.52;;;15.73;;
31782;SDS011;18351;47.560;9.708;2023-02-28T07:17:13;25.00;;;16.73;;
31782;SDS011;18351;47.560;9.708;2023-02-28T07:19:39;24.42;;;16.55;;
31782;SDS011;18351;47.560;9.708;2023-02-28T07:22:05;25.83;;;17.10;;
31782;SDS011;18351;47.560;9.708;2023-02-28T07:24:31;30.63;;;17.55;;
31782;SDS011;18351;47.560;9.708;2023-02-28T07:26:57;25.85;;;17.00;;
31782;SDS011;18351;47.560;9.708;2023-02-28T07:29:22;27.77;;;17.58;;
31782;SDS011;18351;47.560;9.708;2023-02-28T07:31:48;23.42;;;16.25;;
31782;SDS011;18351;47.560;9.708;2023-02-28T07:34:15;27.17;;;16.73;;
31782;SDS011;18351;47.560;9.708;2023-02-28T07:36:41;28.95;;;17.08;;
31782;SDS011;18351;47.560;9.708;2023-02-28T07:39:06;27.83;;;17.20;;
31782;SDS011;18351;47.560;9.708;2023-02-28T07:41:34;25.35;;;16.23;;
31782;SDS011;18351;47.560;9.708;2023-02-28T07:44:02;24.10;;;16.02;;
31782;SDS011;18351;47.560;9.708;2023-02-28T07:46:28;27.15;;;16.08;;
31782;SDS011;18351;47.560;9.708;2023-02-28T07:48:59;23.48;;;15.95;;
31782;SDS011;18351;47.560;9.708;2023-02-28T07:51:25;27.38;;;15.85;;
31782;SDS011;18351;47.560;9.708;2023-02-28T07:53:51;24.45;;;15.65;;
31782;SDS011;18351;47.560;9.708;2023-02-28T07:56:16;24.92;;;15.10;;
31782;SDS011;18351;47.560;9.708;2023-02-28T07:58:42;25.05;;;16.60;;
31782;SDS011;18351;47.560;9.708;2023-02-28T08:01:08;52.58;;;25.42;;
31782;SDS011;18351;47.560;9.708;2023-02-28T08:03:35;32.42;;;18.25;;
31782;SDS011;18351;47.560;9.708;2023-02-28T08:06:02;29.77;;;18.55;;
31782;SDS011;18351;47.560;9.708;2023-02-28T08:08:31;24.90;;;15.57;;
31782;SDS011;18351;47.560;9.708;2023-02-28T08:11:00;30.30;;;17.27;;
31782;SDS011;18351;47.560;9.708;2023-02-28T08:13:28;25.25;;;15.45;;
31782;SDS011;18351;47.560;9.708;2023-02-28T08:15:54;24.50;;;15.10;;
31782;SDS011;18351;47.560;9.708;2023-02-28T08:18:20;29.98;;;16.67;;
31782;SDS011;18351;47.560;9.708;2023-02-28T08:20:47;29.83;;;16.60;;
31782;SDS011;18351;47.560;9.708;2023-02-28T08:23:12;23.80;;;14.98;;
31782;SDS011;18351;47.560;9.708;2023-02-28T08:25:38;28.05;;;16.08;;
31782;SDS011;18351;47.560;9.708;2023-02-28T08:28:04;23.60;;;15.45;;
31782;SDS011;18351;47.560;9.708;2023-02-28T08:30:29;22.40;;;15.30;;
31782;SDS011;18351;47.560;9.708;2023-02-28T08:32:55;23.65;;;15.27;;
31782;SDS011;18351;47.560;9.708;2023-02-28T08:35:21;25.02;;;15.25;;
31782;SDS011;18351;47.560;9.708;2023-02-28T08:37:49;24.23;;;16.00;;
31782;SDS011;18351;47.560;9.708;2023-02-28T08:40:16;24.00;;;15.70;;
31782;SDS011;18351;47.560;9.708;2023-02-28T08:42:46;23.95;;;15.43;;
31782;SDS011;18351;47.560;9.708;2023-02-28T08:45:13;25.27;;;15.00;;
31782;SDS011;18351;47.560;9.708;2023-02-28T08:47:40;26.35;;;15.73;;
31782;SDS011;18351;47.560;9.708;2023-02-28T08:50:05;24.65;;;16.45;;
31782;SDS011;18351;47.560;9.708;2023-02-28T08:52:31;26.55;;;16.45;;
31782;SDS011;18351;47.560;9.708;2023-02-28T08:54:57;26.10;;;15.23;;
31782;SDS011;18351;47.560;9.708;2023-02-28T08:57:23;24.27;;;15.70;;
31782;SDS011;18351;47.560;9.708;2023-02-28T08:59:51;24.05;;;14.73;;
31782;SDS011;18351;47.560;9.708;2023-02-28T09:02:16;27.33;;;16.02;;
31782;SDS011;18351;47.560;9.708;2023-02-28T09:04:42;25.00;;;15.82;;
31782;SDS011;18351;47.560;9.708;2023-02-28T09:07:10;24.50;;;16.42;;
31782;SDS011;18351;47.560;9.708;2023-02-28T09:09:36;25.27;;;15.25;;
31782;SDS011;18351;47.560;9.708;2023-02-28T09:12:02;21.02;;;13.75;;
31782;SDS011;18351;47.560;9.708;2023-02-28T09:14:27;23.83;;;15.88;;
31782;SDS011;18351;47.560;9.708;2023-02-28T09:16:53;27.80;;;15.02;;
31782;SDS011;18351;47.560;9.708;2023-02-28T09:19:19;22.15;;;15.30;;
31782;SDS011;18351;47.560;9.708;2023-02-28T09:21:45;20.80;;;14.73;;
31782;SDS011;18351;47.560;9.708;2023-02-28T09:24:10;21.88;;;14.48;;
31782;SDS011;18351;47.560;9.708;2023-02-28T09:26:39;22.75;;;15.32;;
31782;SDS011;18351;47.560;9.708;2023-02-28T09:29:05;23.55;;;15.95;;
31782;SDS011;18351;47.560;9.708;2023-02-28T09:31:31;23.42;;;15.25;;
31782;SDS011;18351;47.560;9.708;2023-02-28T09:33:57;22.73;;;14.63;;
31782;SDS011;18351;47.560;9.708;2023-02-28T09:36:24;24.27;;;15.43;;
31782;SDS011;18351;47.560;9.708;2023-02-28T09:38:50;25.13;;;15.07;;
31782;SDS011;18351;47.560;9.708;2023-02-28T09:41:26;24.10;;;14.95;;
31782;SDS011;18351;47.560;9.708;2023-02-28T09:44:00;21.95;;;14.35;;
31782;SDS011;18351;47.560;9.708;2023-02-28T09:46:32;21.73;;;15.18;;
31782;SDS011;18351;47.560;9.708;2023-02-28T09:49:14;23.63;;;14.57;;
31782;SDS011;18351;47.560;9.708;2023-02-28T09:51:50;23.35;;;15.25;;
31782;SDS011;18351;47.560;9.708;2023-02-28T09:54:24;23.20;;;15.50;;
31782;SDS011;18351;47.560;9.708;2023-02-28T10:00:22;21.45;;;13.93;;
31782;SDS011;18351;47.560;9.708;2023-02-28T10:11:27;22.50;;;15.68;;
31782;SDS011;18351;47.560;9.708;2023-02-28T10:13:56;23.23;;;15.55;;
31782;SDS011;18351;47.560;9.708;2023-02-28T10:19:11;24.15;;;15.13;;
31782;SDS011;18351;47.560;9.708;2023-02-28T10:21:41;21.05;;;14.98;;
31782;SDS011;18351;47.560;9.708;2023-02-28T10:24:23;24.90;;;16.20;;
31782;SDS011;18351;47.560;9.708;2023-02-28T10:27:00;24.15;;;15.65;;
31782;SDS011;18351;47.560;9.708;2023-02-28T10:29:36;21.67;;;14.65;;
31782;SDS011;18351;47.560;9.708;2023-02-28T10:32:02;24.02;;;14.95;;
31782;SDS011;18351;47.560;9.708;2023-02-28T10:34:28;24.40;;;15.15;;
31782;SDS011;18351;47.560;9.708;2023-02-28T10:36:54;23.08;;;15.48;;
31782;SDS011;18351;47.560;9.708;2023-02-28T10:39:34;21.20;;;14.35;;
31782;SDS011;18351;47.560;9.708;2023-02-28T10:42:18;28.02;;;14.85;;
31782;SDS011;18351;47.560;9.708;2023-02-28T10:47:35;23.73;;;15.15;;
31782;SDS011;18351;47.560;9.708;2023-02-28T10:50:29;32.90;;;17.27;;
31782;SDS011;18351;47.560;9.708;2023-02-28T10:53:05;22.58;;;15.23;;
31782;SDS011;18351;47.560;9.708;2023-02-28T10:55:35;23.77;;;14.70;;
31782;SDS011;18351;47.560;9.708;2023-02-28T10:58:02;22.10;;;15.23;;
31782;SDS011;18351;47.560;9.708;2023-02-28T11:00:32;21.70;;;14.80;;
31782;SDS011;18351;47.560;9.708;2023-02-28T11:02:59;23.30;;;15.10;;
31782;SDS011;18351;47.560;9.708;2023-02-28T11:05:29;22.02;;;14.60;;
31782;SDS011;18351;47.560;9.708;2023-02-28T11:07:59;25.52;;;15.40;;
31782;SDS011;18351;47.560;9.708;2023-02-28T11:10:35;20.55;;;14.50;;
31782;SDS011;18351;47.560;9.708;2023-02-28T11:13:01;23.55;;;15.55;;
31782;SDS011;18351;47.560;9.708;2023-02-28T11:15:29;22.15;;;15.23;;
31782;SDS011;18351;47.560;9.708;2023-02-28T11:18:18;23.23;;;15.27;;
31782;SDS011;18351;47.560;9.708;2023-02-28T11:20:55;24.83;;;14.35;;
31782;SDS011;18351;47.560;9.708;2023-02-28T11:23:24;20.33;;;13.63;;
31782;SDS011;18351;47.560;9.708;2023-02-28T11:25:52;20.00;;;13.77;;
31782;SDS011;18351;47.560;9.708;2023-02-28T11:28:26;23.52;;;14.82;;
31782;SDS011;18351;47.560;9.708;2023-02-28T11:30:59;21.30;;;15.32;;
31782;SDS011;18351;47.560;9.708;2023-02-28T11:33:28;23.15;;;15.85;;
31782;SDS011;18351;47.560;9.708;2023-02-28T11:36:10;23.00;;;14.88;;
31782;SDS011;18351;47.560;9.708;2023-02-28T11:38:39;22.02;;;14.50;;
31782;SDS011;18351;47.560;9.708;2023-02-28T11:41:07;19.92;;;14.73;;
31782;SDS011;18351;47.560;9.708;2023-02-28T11:51:32;22.13;;;15.10;;
31782;SDS011;18351;47.560;9.708;2023-02-28T11:54:35;24.75;;;15.38;;
31782;SDS011;18351;47.560;9.708;2023-02-28T11:57:00;21.77;;;14.80;;
31782;SDS011;18351;47.560;9.708;2023-02-28T11:59:44;19.73;;;14.30;;
31782;SDS011;18351;47.560;9.708;2023-02-28T12:02:45;22.75;;;14.70;;
31782;SDS011;18351;47.560;9.708;2023-02-28T12:05:31;21.38;;;15.05;;
31782;SDS011;18351;47.560;9.708;2023-02-28T12:16:41;31.67;;;17.13;;
31782;SDS011;18351;47.560;9.708;2023-02-28T12:19:21;20.98;;;14.90;;
31782;SDS011;18351;47.560;9.708;2023-02-28T12:22:17;18.98;;;14.18;;
31782;SDS011;18351;47.560;9.708;2023-02-28T12:27:43;23.50;;;14.75;;
31782;SDS011;18351;47.560;9.708;2023-02-28T12:30:19;20.23;;;14.70;;
31782;SDS011;18351;47.560;9.708;2023-02-28T12:32:50;21.30;;;14.60;;
31782;SDS011;18351;47.560;9.708;2023-02-28T12:35:33;22.48;;;15.50;;
31782;SDS011;18351;47.560;9.708;2023-02-28T12:40:50;23.05;;;15.88;;
31782;SDS011;18351;47.560;9.708;2023-02-28T12:43:22;24.42;;;15.70;;
31782;SDS011;18351;47.560;9.708;2023-02-28T12:45:57;22.55;;;15.60;;
31782;SDS011;18351;47.560;9.708;2023-02-28T12:48:30;22.55;;;15.65;;
31782;SDS011;18351;47.560;9.708;2023-02-28T12:51:02;24.73;;;15.52;;
31782;SDS011;18351;47.560;9.708;2023-02-28T12:56:20;26.25;;;15.68;;
31782;SDS011;18351;47.560;9.708;2023-02-28T12:58:56;25.67;;;16.83;;
31782;SDS011;18351;47.560;9.708;2023-02-28T13:04:38;22.83;;;15.75;;
31782;SDS011;18351;47.560;9.708;2023-02-28T13:07:24;22.42;;;15.73;;
31782;SDS011;18351;47.560;9.708;2023-02-28T13:10:17;24.45;;;15.80;;
31782;SDS011;18351;47.560;9.708;2023-02-28T13:12:47;23.02;;;15.23;;
31782;SDS011;18351;47.560;9.708;2023-02-28T13:15:26;25.77;;;14.93;;
31782;SDS011;18351;47.560;9.708;2023-02-28T13:18:00;23.33;;;15.60;;
31782;SDS011;18351;47.560;9.708;2023-02-28T13:20:27;22.20;;;15.32;;
31782;SDS011;18351;47.560;9.708;2023-02-28T13:23:00;23.67;;;15.90;;
31782;SDS011;18351;47.560;9.708;2023-02-28T13:27:59;28.63;;;17.80;;
31782;SDS011;18351;47.560;9.708;2023-02-28T13:33:33;23.58;;;15.60;;
31782;SDS011;18351;47.560;9.708;2023-02-28T13:36:28;22.95;;;15.80;;
31782;SDS011;18351;47.560;9.708;2023-02-28T13:38:56;24.27;;;16.05;;
31782;SDS011;18351;47.560;9.708;2023-02-28T13:46:30;25.27;;;16.17;;
31782;SDS011;18351;47.560;9.708;2023-02-28T13:48:56;25.40;;;16.95;;
31782;SDS011;18351;47.560;9.708;2023-02-28T13:51:42;28.63;;;16.80;;
31782;SDS011;18351;47.560;9.708;2023-02-28T13:54:16;24.23;;;16.45;;
31782;SDS011;18351;47.560;9.708;2023-02-28T13:59:49;28.55;;;17.80;;
31782;SDS011;18351;47.560;9.708;2023-02-28T14:02:31;26.48;;;17.17;;
31782;SDS011;18351;47.560;9.708;2023-02-28T14:07:48;28.45;;;18.38;;
31782;SDS011;18351;47.560;9.708;2023-02-28T14:10:38;28.30;;;17.92;;
31782;SDS011;18351;47.560;9.708;2023-02-28T14:13:58;27.48;;;17.75;;
31782;SDS011;18351;47.560;9.708;2023-02-28T14:16:13;25.45;;;16.60;;
31782;SDS011;18351;47.560;9.708;2023-02-28T14:18:50;40.67;;;19.15;;
31782;SDS011;18351;47.560;9.708;2023-02-28T14:21:35;29.90;;;18.23;;
31782;SDS011;18351;47.560;9.708;2023-02-28T14:24:08;32.63;;;19.40;;
31782;SDS011;18351;47.560;9.708;2023-02-28T14:26:59;28.13;;;18.08;;
31782;SDS011;18351;47.560;9.708;2023-02-28T14:38:19;29.40;;;19.40;;
31782;SDS011;18351;47.560;9.708;2023-02-28T14:40:55;28.50;;;18.08;;
31782;SDS011;18351;47.560;9.708;2023-02-28T14:43:26;31.60;;;20.50;;
31782;SDS011;18351;47.560;9.708;2023-02-28T14:45:54;30.60;;;19.70;;
31782;SDS011;18351;47.560;9.708;2023-02-28T14:48:23;29.63;;;19.50;;
31782;SDS011;18351;47.560;9.708;2023-02-28T14:50:54;30.33;;;19.63;;
31782;SDS011;18351;47.560;9.708;2023-02-28T14:53:26;30.33;;;19.23;;
31782;SDS011;18351;47.560;9.708;2023-02-28T14:55:55;28.17;;;18.05;;
31782;SDS011;18351;47.560;9.708;2023-02-28T14:58:22;33.20;;;21.75;;
31782;SDS011;18351;47.560;9.708;2023-02-28T15:00:51;35.17;;;21.58;;
31782;SDS011;18351;47.560;9.708;2023-02-28T15:05:56;35.70;;;21.83;;
31782;SDS011;18351;47.560;9.708;2023-02-28T15:08:24;34.83;;;21.55;;
31782;SDS011;18351;47.560;9.708;2023-02-28T15:13:16;32.80;;;21.60;;
31782;SDS011;18351;47.560;9.708;2023-02-28T15:20:51;38.03;;;22.95;;
31782;SDS011;18351;47.560;9.708;2023-02-28T15:23:18;39.15;;;23.15;;
31782;SDS011;18351;47.560;9.708;2023-02-28T15:25:46;37.10;;;22.42;;
31782;SDS011;18351;47.560;9.708;2023-02-28T15:28:14;36.75;;;22.80;;
31782;SDS011;18351;47.560;9.708;2023-02-28T15:30:50;38.13;;;23.23;;
31782;SDS011;18351;47.560;9.708;2023-02-28T15:33:19;42.15;;;24.08;;
31782;SDS011;18351;47.560;9.708;2023-02-28T15:35:47;35.97;;;21.98;;
31782;SDS011;18351;47.560;9.708;2023-02-28T15:38:23;36.60;;;23.13;;
31782;SDS011;18351;47.560;9.708;2023-02-28T15:40:52;38.97;;;22.33;;
31782;SDS011;18351;47.560;9.708;2023-02-28T15:45:57;42.05;;;23.98;;
31782;SDS011;18351;47.560;9.708;2023-02-28T15:48:28;39.70;;;23.55;;
31782;SDS011;18351;47.560;9.708;2023-02-28T15:50:57;46.70;;;24.92;;
31782;SDS011;18351;47.560;9.708;2023-02-28T15:53:46;49.03;;;28.55;;
31782;SDS011;18351;47.560;9.708;2023-02-28T15:58:49;78.82;;;48.40;;
31782;SDS011;18351;47.560;9.708;2023-02-28T16:01:20;42.38;;;26.27;;
31782;SDS011;18351;47.560;9.708;2023-02-28T16:03:53;43.28;;;25.75;;
31782;SDS011;18351;47.560;9.708;2023-02-28T16:08:48;45.10;;;25.90;;
31782;SDS011;18351;47.560;9.708;2023-02-28T16:11:16;40.00;;;25.35;;
31782;SDS011;18351;47.560;9.708;2023-02-28T16:13:42;47.47;;;26.10;;
31782;SDS011;18351;47.560;9.708;2023-02-28T16:16:07;42.30;;;25.08;;
31782;SDS011;18351;47.560;9.708;2023-02-28T16:18:33;58.22;;;32.78;;
31782;SDS011;18351;47.560;9.708;2023-02-28T16:20:59;53.20;;;32.75;;
31782;SDS011;18351;47.560;9.708;2023-02-28T16:23:24;56.45;;;30.70;;
31782;SDS011;18351;47.560;9.708;2023-02-28T16:25:50;43.50;;;26.20;;
31782;SDS011;18351;47.560;9.708;2023-02-28T16:28:18;46.88;;;27.13;;
31782;SDS011;18351;47.560;9.708;2023-02-28T16:30:57;48.53;;;28.65;;
31782;SDS011;18351;47.560;9.708;2023-02-28T16:33:26;46.92;;;27.55;;
31782;SDS011;18351;47.560;9.708;2023-02-28T16:35:52;44.08;;;25.65;;
31782;SDS011;18351;47.560;9.708;2023-02-28T16:38:17;48.55;;;26.85;;
31782;SDS011;18351;47.560;9.708;2023-02-28T16:40:43;46.65;;;25.63;;
31782;SDS011;18351;47.560;9.708;2023-02-28T16:43:13;47.78;;;27.63;;
31782;SDS011;18351;47.560;9.708;2023-02-28T16:45:42;48.33;;;26.45;;
31782;SDS011;18351;47.560;9.708;2023-02-28T16:48:10;53.78;;;27.85;;